Pleasant Valley, California
Current Conditions -  °F | °C
As of 8:15 AM on Sunday 23 Nov 2014 (Local Time) from KPVF Reporting Station
Clear Clear  
Wind Chill: 50°   Ceiling: Unl
Heat Index: 50°   Visibility: 10mi
Dew Point: 19°   Wind: 0mph
Humidity: 30%   Direction: NA
Pressure: 30.28"   Gusts: NA
Location:  38.7308°N, 120.774°W
Report Text: KPVF 231615Z AUTO 00000KT 10SM CLR 10/M07 A3028 RMK AO1
Loading
Personal Weather Stations






























Interactive Weather Map New forecast layout! Learn more

10-Day Weather Forecast

Advertisements
Track Severe Weather on mobile